createdAt,value
2017-05-30T00:02:11.752Z,14.36
2017-05-30T00:04:39.988Z,13.30
2017-05-30T00:07:08.225Z,15.58
2017-05-30T00:09:36.465Z,12.90
2017-05-30T00:12:04.691Z,13.86
2017-05-30T00:14:32.934Z,13.08
2017-05-30T00:17:01.158Z,12.46
2017-05-30T00:19:29.393Z,12.50
2017-05-30T00:21:57.638Z,12.36
2017-05-30T00:24:25.878Z,15.32
2017-05-30T00:26:54.117Z,11.26
2017-05-30T00:29:22.362Z,12.74
2017-05-30T00:31:50.601Z,12.60
2017-05-30T00:34:18.838Z,13.00
2017-05-30T00:36:47.077Z,12.20
2017-05-30T00:39:15.308Z,13.86
2017-05-30T00:41:43.529Z,13.12
2017-05-30T00:44:11.765Z,16.52
2017-05-30T00:46:39.990Z,13.90
2017-05-30T00:49:08.282Z,14.02
2017-05-30T00:51:36.513Z,13.30
2017-05-30T00:54:04.756Z,14.98
2017-05-30T00:56:32.996Z,14.38
2017-05-30T00:59:01.234Z,16.38
2017-05-30T01:01:29.479Z,14.42
2017-05-30T01:03:57.717Z,12.80
2017-05-30T01:06:25.944Z,17.10
2017-05-30T01:08:54.169Z,19.08
2017-05-30T01:11:22.421Z,16.42
2017-05-30T01:13:50.666Z,17.02
2017-05-30T01:16:18.897Z,16.70
2017-05-30T01:18:47.134Z,17.14
2017-05-30T01:21:15.376Z,19.38
2017-05-30T01:23:43.629Z,20.18
2017-05-30T01:26:11.859Z,20.32
2017-05-30T01:28:40.101Z,23.48
2017-05-30T01:31:08.335Z,16.98
2017-05-30T01:33:36.573Z,21.38
2017-05-30T01:36:04.812Z,17.52
2017-05-30T01:38:33.037Z,14.70
2017-05-30T01:41:01.281Z,18.38
2017-05-30T01:43:29.522Z,16.12
2017-05-30T01:45:57.768Z,15.98
2017-05-30T01:48:26.018Z,18.94
2017-05-30T01:50:54.241Z,16.50
2017-05-30T01:53:22.481Z,17.24
2017-05-30T01:55:50.741Z,16.94
2017-05-30T01:58:18.973Z,15.26
2017-05-30T02:00:47.208Z,22.54
2017-05-30T02:03:15.434Z,21.36
2017-05-30T02:05:43.668Z,17.50
2017-05-30T02:08:11.890Z,17.40
2017-05-30T02:10:40.109Z,19.28
2017-05-30T02:13:08.349Z,18.00
2017-05-30T02:15:36.589Z,22.26
2017-05-30T02:18:04.829Z,21.64
2017-05-30T02:20:33.058Z,25.24
2017-05-30T02:23:01.301Z,24.36
2017-05-30T02:25:29.543Z,23.54
2017-05-30T02:27:57.777Z,20.36
2017-05-30T02:30:26.101Z,21.42
2017-05-30T02:32:54.313Z,22.56
2017-05-30T02:35:22.562Z,24.58
2017-05-30T02:37:50.781Z,20.28
2017-05-30T02:40:19.041Z,22.90
2017-05-30T02:42:47.329Z,28.88
2017-05-30T02:45:15.565Z,23.70
2017-05-30T02:47:43.802Z,27.80
2017-05-30T02:50:12.042Z,26.70
2017-05-30T02:52:40.284Z,25.52
2017-05-30T02:55:08.521Z,21.58
2017-05-30T02:57:36.762Z,39.46
2017-05-30T03:00:04.995Z,49.58
2017-05-30T03:02:33.220Z,31.52
2017-05-30T03:05:01.454Z,45.36
2017-05-30T03:13:12.973Z,43.14
2017-05-30T03:15:41.204Z,40.44
2017-05-30T03:18:09.432Z,45.20
2017-05-30T03:20:37.674Z,38.68
2017-05-30T03:23:05.905Z,37.36
2017-05-30T03:25:34.137Z,32.80
2017-05-30T03:28:02.371Z,37.54
2017-05-30T03:30:30.592Z,33.70
2017-05-30T03:32:58.824Z,40.38
2017-05-30T03:35:27.058Z,31.80
2017-05-30T03:37:55.285Z,29.08
2017-05-30T03:40:23.517Z,29.26
2017-05-30T03:42:51.753Z,25.52
2017-05-30T03:45:19.988Z,28.56
2017-05-30T03:47:48.224Z,28.54
2017-05-30T03:50:16.463Z,35.22
2017-05-30T03:52:44.702Z,26.90
2017-05-30T03:55:12.942Z,37.54
2017-05-30T03:57:41.168Z,27.96
2017-05-30T04:00:09.396Z,36.04
2017-05-30T04:02:37.624Z,32.92
2017-05-30T04:05:05.860Z,33.28
2017-05-30T04:07:34.101Z,28.50
2017-05-30T04:10:02.317Z,33.54
2017-05-30T04:12:30.558Z,29.64
2017-05-30T04:14:58.796Z,33.26
2017-05-30T04:17:27.033Z,32.46
2017-05-30T04:19:55.351Z,34.94
2017-05-30T04:22:23.556Z,33.26
2017-05-30T04:24:51.792Z,34.92
2017-05-30T04:27:20.020Z,33.16
2017-05-30T04:29:48.262Z,37.60
2017-05-30T04:32:16.493Z,27.74
2017-05-30T04:34:44.729Z,36.98
2017-05-30T04:37:12.960Z,28.94
2017-05-30T04:39:41.188Z,33.98
2017-05-30T04:42:09.425Z,38.00
2017-05-30T04:44:37.707Z,36.24
2017-05-30T04:47:05.941Z,38.62
2017-05-30T04:49:34.172Z,35.54
2017-05-30T04:52:02.397Z,37.64
2017-05-30T04:54:31.556Z,36.62
2017-05-30T04:56:59.797Z,34.40
2017-05-30T04:59:28.040Z,32.98
2017-05-30T05:01:56.269Z,30.24
2017-05-30T05:04:24.501Z,31.78
2017-05-30T05:06:52.722Z,24.30
2017-05-30T05:09:20.966Z,26.42
2017-05-30T05:11:49.200Z,30.54
2017-05-30T05:14:17.424Z,30.00
2017-05-30T05:16:45.653Z,29.90
2017-05-30T05:19:13.879Z,33.96
2017-05-30T05:21:42.177Z,33.06
2017-05-30T05:24:10.405Z,36.66
2017-05-30T05:26:38.695Z,40.96
2017-05-30T05:29:06.879Z,42.04
2017-05-30T05:31:35.101Z,42.84
2017-05-30T05:34:03.340Z,46.68
2017-05-30T05:36:31.572Z,41.62
2017-05-30T05:38:59.808Z,45.66
2017-05-30T05:41:28.018Z,45.10
2017-05-30T05:43:56.248Z,47.04
2017-05-30T05:46:24.476Z,47.96
2017-05-30T05:48:52.712Z,41.88
2017-05-30T05:51:20.942Z,43.42
2017-05-30T05:53:49.177Z,46.40
2017-05-30T05:56:17.413Z,37.22
2017-05-30T05:58:45.636Z,41.60
2017-05-30T06:01:13.872Z,46.24
2017-05-30T06:03:42.109Z,40.56
2017-05-30T06:06:10.342Z,43.88
2017-05-30T06:08:38.572Z,39.58
2017-05-30T06:11:06.805Z,39.28
2017-05-30T06:13:35.046Z,45.46
2017-05-30T06:16:03.335Z,41.58
2017-05-30T06:18:31.573Z,45.78
2017-05-30T06:20:59.803Z,42.66
2017-05-30T06:23:28.033Z,42.60
2017-05-30T06:25:56.272Z,41.02
2017-05-30T06:28:24.500Z,36.82
2017-05-30T06:30:52.743Z,44.24
2017-05-30T06:33:20.971Z,43.68
2017-05-30T06:35:49.197Z,45.22
2017-05-30T06:38:17.469Z,43.64
2017-05-30T06:40:45.821Z,41.92
2017-05-30T06:43:14.125Z,35.60
2017-05-30T06:45:42.400Z,40.74
2017-05-30T06:48:10.675Z,42.72
2017-05-30T06:50:38.957Z,40.78
2017-05-30T06:53:07.192Z,38.84
2017-05-30T06:55:35.428Z,31.88
2017-05-30T06:58:03.654Z,29.14
2017-05-30T07:00:31.884Z,33.18
2017-05-30T07:03:00.119Z,35.12
2017-05-30T07:05:28.356Z,32.24
2017-05-30T07:07:56.589Z,38.32
2017-05-30T07:10:24.813Z,43.00
2017-05-30T07:12:53.053Z,31.88
2017-05-30T07:15:21.276Z,28.34
2017-05-30T07:17:49.501Z,31.88
2017-05-30T07:20:17.721Z,33.66
2017-05-30T07:22:45.956Z,34.60
2017-05-30T07:25:14.181Z,28.36
2017-05-30T07:27:42.413Z,38.52
2017-05-30T07:30:10.654Z,30.12
2017-05-30T07:32:38.883Z,29.54
2017-05-30T07:35:07.145Z,30.80
2017-05-30T07:37:35.377Z,34.24
2017-05-30T07:40:03.609Z,29.80
2017-05-30T07:42:31.841Z,26.46
2017-05-30T07:45:00.064Z,35.48
2017-05-30T07:47:28.305Z,28.44
2017-05-30T07:49:56.529Z,29.04
2017-05-30T07:52:24.756Z,26.86
2017-05-30T07:54:52.989Z,34.60
2017-05-30T07:57:21.221Z,31.08
2017-05-30T07:59:49.451Z,35.12
2017-05-30T08:02:17.681Z,30.82
2017-05-30T08:04:45.920Z,31.72
2017-05-30T08:07:14.206Z,28.38
2017-05-30T08:09:42.489Z,26.34
2017-05-30T08:12:10.716Z,25.62
2017-05-30T08:14:38.949Z,23.56
2017-05-30T08:17:07.180Z,21.10
2017-05-30T08:19:35.415Z,22.38
2017-05-30T08:22:03.705Z,22.78
2017-05-30T08:24:31.929Z,23.02
2017-05-30T08:27:00.164Z,19.82
2017-05-30T08:29:28.400Z,19.72
2017-05-30T08:31:56.637Z,19.34
2017-05-30T08:34:24.858Z,22.50
2017-05-30T08:36:53.084Z,17.24
2017-05-30T08:39:21.329Z,19.38
2017-05-30T08:41:49.561Z,25.02
2017-05-30T08:44:17.792Z,18.20
2017-05-30T08:46:46.012Z,18.36
2017-05-30T08:49:14.244Z,22.32
2017-05-30T08:51:42.464Z,17.22
2017-05-30T08:54:10.692Z,15.42
2017-05-30T08:56:38.923Z,14.50
2017-05-30T08:59:07.157Z,22.14
2017-05-30T09:01:35.395Z,19.40
2017-05-30T09:04:03.639Z,16.60
2017-05-30T09:06:31.868Z,16.52
2017-05-30T09:09:00.101Z,11.80
2017-05-30T09:11:28.340Z,10.02
2017-05-30T09:13:56.568Z,11.20
2017-05-30T09:16:24.780Z,10.64
2017-05-30T09:18:53.008Z,9.94
2017-05-30T09:21:21.229Z,13.10
2017-05-30T09:23:49.456Z,16.10
2017-05-30T09:26:17.725Z,13.64
2017-05-30T09:28:45.949Z,13.16
2017-05-30T09:31:14.179Z,13.16
2017-05-30T09:33:42.399Z,17.04
2017-05-30T09:36:10.633Z,15.72
2017-05-30T09:38:38.865Z,17.42
2017-05-30T09:41:07.104Z,16.30
2017-05-30T09:43:35.333Z,17.70
2017-05-30T09:46:03.564Z,18.66
2017-05-30T09:48:31.806Z,20.24
2017-05-30T09:51:00.085Z,20.76
2017-05-30T09:53:28.304Z,14.68
2017-05-30T09:55:56.544Z,13.58
2017-05-30T09:58:24.784Z,14.90
2017-05-30T10:00:53.000Z,14.40
2017-05-30T10:03:21.243Z,12.54
2017-05-30T10:05:49.468Z,12.74
2017-05-30T10:08:17.693Z,14.62
2017-05-30T10:10:45.927Z,16.68
2017-05-30T10:13:14.144Z,13.64
2017-05-30T10:15:42.428Z,11.20
2017-05-30T10:18:10.651Z,11.82
2017-05-30T10:20:38.855Z,11.20
2017-05-30T10:23:07.085Z,9.96
2017-05-30T10:25:35.305Z,12.68
2017-05-30T10:28:03.540Z,9.82
2017-05-30T10:30:31.774Z,9.08
2017-05-30T10:32:59.993Z,9.30
2017-05-30T10:35:28.220Z,9.74
2017-05-30T10:37:56.436Z,12.06
2017-05-30T10:40:24.669Z,19.98
2017-05-30T10:42:52.900Z,13.46
2017-05-30T10:45:21.136Z,17.70
2017-05-30T10:47:49.352Z,16.34
2017-05-30T10:50:17.636Z,19.44
2017-05-30T10:52:45.852Z,20.44
2017-05-30T10:55:14.088Z,18.20
2017-05-30T10:57:42.316Z,20.28
2017-05-30T11:00:10.556Z,16.08
2017-05-30T11:02:38.796Z,23.32
2017-05-30T11:05:07.030Z,16.84
2017-05-30T11:07:35.260Z,17.84
2017-05-30T11:10:03.493Z,15.60
2017-05-30T11:12:31.721Z,15.06
2017-05-30T11:14:59.952Z,14.44
2017-05-30T11:17:28.157Z,13.22
2017-05-30T11:19:56.404Z,14.94
2017-05-30T11:22:24.648Z,12.70
2017-05-30T11:24:52.884Z,13.36
2017-05-30T11:27:21.124Z,12.30
2017-05-30T11:29:49.353Z,13.06
2017-05-30T11:32:17.580Z,14.38
2017-05-30T11:34:45.809Z,15.96
2017-05-30T11:37:14.046Z,13.60
2017-05-30T11:39:42.272Z,11.48
2017-05-30T11:42:10.507Z,12.16
2017-05-30T11:44:38.788Z,11.96
2017-05-30T11:47:06.987Z,11.20
2017-05-30T11:49:35.223Z,12.28
2017-05-30T11:52:03.544Z,16.14
2017-05-30T11:54:31.820Z,11.72
2017-05-30T11:57:00.129Z,15.90
2017-05-30T11:59:28.368Z,15.48
2017-05-30T12:01:56.608Z,16.10
2017-05-30T12:04:24.837Z,14.80
2017-05-30T12:06:53.071Z,15.92
2017-05-30T12:09:21.284Z,19.54
2017-05-30T12:11:49.524Z,17.26
2017-05-30T12:14:17.747Z,24.48
2017-05-30T12:16:45.988Z,19.30
2017-05-30T12:19:14.217Z,17.06
2017-05-30T12:21:42.457Z,18.64
2017-05-30T12:24:10.709Z,17.34
2017-05-30T12:26:38.948Z,16.08
2017-05-30T12:29:07.196Z,13.52
2017-05-30T12:31:35.430Z,15.72
2017-05-30T12:34:03.653Z,14.26
2017-05-30T12:36:31.886Z,10.72
2017-05-30T12:39:00.106Z,12.24
2017-05-30T12:41:28.348Z,13.60
2017-05-30T12:43:56.560Z,8.66
2017-05-30T12:46:24.792Z,8.18
2017-05-30T12:48:53.020Z,9.36
2017-05-30T12:51:21.259Z,9.96
2017-05-30T12:53:49.484Z,11.14
2017-05-30T12:56:17.712Z,11.86
2017-05-30T12:58:45.944Z,13.10
2017-05-30T13:01:14.168Z,8.84
2017-05-30T13:03:42.398Z,14.60
2017-05-30T13:06:10.633Z,12.12
2017-05-30T13:08:38.852Z,13.96
2017-05-30T13:11:07.093Z,9.34
2017-05-30T13:13:35.316Z,17.10
2017-05-30T13:16:03.553Z,12.72
2017-05-30T13:18:31.837Z,7.80
2017-05-30T13:21:00.069Z,10.28
2017-05-30T13:23:28.292Z,8.02
2017-05-30T13:25:56.609Z,7.88
2017-05-30T13:28:24.895Z,7.98
2017-05-30T13:30:53.068Z,11.02
2017-05-30T13:33:21.291Z,6.54
2017-05-30T13:35:49.513Z,9.10
2017-05-30T13:38:17.748Z,7.68
2017-05-30T13:40:45.976Z,10.62
2017-05-30T13:43:14.199Z,9.26
2017-05-30T13:45:42.423Z,8.28
2017-05-30T13:48:10.649Z,8.96
2017-05-30T13:50:38.913Z,10.56
2017-05-30T13:53:07.132Z,11.04
2017-05-30T13:55:35.364Z,7.64
2017-05-30T13:58:03.592Z,9.76
2017-05-30T14:00:31.811Z,8.14
2017-05-30T14:03:00.040Z,12.36
2017-05-30T14:05:28.267Z,9.58
2017-05-30T14:07:56.502Z,7.60
2017-05-30T14:10:24.720Z,13.96
2017-05-30T14:12:52.960Z,12.28
2017-05-30T14:15:21.191Z,8.92
2017-05-30T14:17:49.421Z,8.46
2017-05-30T14:20:17.652Z,15.28
2017-05-30T14:22:45.875Z,11.94
2017-05-30T14:25:14.105Z,12.40
2017-05-30T14:27:42.337Z,9.52
2017-05-30T14:30:10.569Z,10.48
2017-05-30T14:32:38.804Z,10.44
2017-05-30T14:35:07.021Z,8.22
2017-05-30T14:37:35.245Z,9.48
2017-05-30T14:40:03.464Z,9.16
2017-05-30T14:42:31.692Z,9.62
2017-05-30T14:44:59.912Z,13.32
2017-05-30T14:47:28.146Z,9.02
2017-05-30T14:49:56.360Z,8.30
2017-05-30T14:52:24.583Z,9.98
2017-05-30T14:54:52.816Z,9.18
2017-05-30T14:57:21.043Z,8.32
2017-05-30T14:59:49.282Z,11.02
2017-05-30T15:02:17.505Z,9.36
2017-05-30T15:04:45.752Z,7.80
2017-05-30T15:07:13.977Z,10.40
2017-05-30T15:09:42.201Z,15.52
2017-05-30T15:12:10.433Z,8.30
2017-05-30T15:14:38.656Z,7.44
2017-05-30T15:17:06.880Z,6.44
2017-05-30T15:19:35.109Z,6.64
2017-05-30T15:22:03.336Z,7.38
2017-05-30T15:24:31.556Z,7.70
2017-05-30T15:26:59.780Z,7.48
2017-05-30T15:29:28.010Z,11.34
2017-05-30T15:31:56.290Z,7.12
2017-05-30T15:34:24.517Z,6.44
2017-05-30T15:36:52.740Z,6.82
2017-05-30T15:39:21.015Z,8.46
2017-05-30T15:41:49.237Z,6.22
2017-05-30T15:44:17.462Z,6.42
2017-05-30T15:46:45.755Z,7.74
2017-05-30T15:49:14.005Z,7.92
2017-05-30T15:51:42.229Z,7.24
2017-05-30T15:54:10.459Z,9.16
2017-05-30T15:56:38.688Z,8.40
2017-05-30T15:59:06.917Z,7.20
2017-05-30T16:01:35.146Z,6.10
2017-05-30T16:04:03.374Z,9.42
2017-05-30T16:06:31.587Z,5.64
2017-05-30T16:08:59.822Z,4.98
2017-05-30T16:11:28.050Z,6.24
2017-05-30T16:13:56.274Z,5.52
2017-05-30T16:16:24.496Z,6.54
2017-05-30T16:18:52.726Z,6.60
2017-05-30T16:21:20.949Z,6.74
2017-05-30T17:25:09.144Z,7.38
2017-05-30T17:27:37.947Z,6.98
2017-05-30T17:30:06.753Z,8.00
2017-05-30T17:32:35.632Z,6.90
2017-05-30T17:35:04.438Z,8.76
2017-05-30T17:37:33.255Z,10.00
2017-05-30T17:40:02.049Z,9.28
2017-05-30T17:42:30.864Z,7.92
2017-05-30T17:44:59.680Z,6.76
2017-05-30T17:47:28.475Z,7.08
2017-05-30T17:49:57.284Z,6.86
2017-05-30T17:52:26.099Z,5.60
2017-05-30T17:54:54.912Z,8.34
2017-05-30T17:57:23.720Z,9.56
2017-05-30T17:59:52.529Z,9.84
2017-05-30T18:02:21.332Z,6.60
2017-05-30T18:04:50.133Z,5.94
2017-05-30T18:07:18.940Z,5.10
2017-05-30T18:09:47.753Z,10.66
2017-05-30T18:12:16.555Z,9.16
2017-05-30T18:21:36.180Z,8.74
2017-05-30T18:24:04.988Z,11.32
2017-05-30T18:32:04.300Z,8.80
2017-05-30T18:43:53.957Z,11.34
2017-05-30T18:46:22.180Z,5.90
2017-05-30T18:48:50.401Z,6.42
2017-05-30T18:51:18.628Z,7.78
2017-05-30T18:53:46.861Z,11.04
2017-05-30T18:56:15.093Z,12.94
2017-05-30T18:58:43.314Z,8.12
2017-05-30T19:01:11.543Z,12.94
2017-05-30T19:03:39.769Z,9.98
2017-05-30T19:06:07.994Z,10.54
2017-05-30T19:08:36.735Z,7.22
2017-05-30T19:11:04.960Z,6.48
2017-05-30T19:13:33.180Z,6.24
2017-05-30T19:16:01.420Z,4.54
2017-05-30T19:18:29.644Z,5.38
2017-05-30T19:20:57.876Z,8.46
2017-05-30T19:23:26.112Z,6.14
2017-05-30T19:25:55.218Z,10.74
2017-05-30T19:28:23.443Z,9.10
2017-05-30T19:30:51.673Z,6.28
2017-05-30T19:33:19.900Z,7.10
2017-05-30T19:35:48.138Z,10.76
2017-05-30T19:38:16.409Z,10.62
2017-05-30T19:40:46.248Z,6.30
2017-05-30T19:43:14.504Z,12.94
2017-05-30T19:45:42.741Z,7.06
2017-05-30T19:48:10.969Z,10.14
2017-05-30T19:50:39.201Z,7.12
2017-05-30T19:53:07.433Z,10.62
2017-05-30T19:55:35.683Z,9.24
2017-05-30T19:58:03.935Z,6.12
2017-05-30T20:00:32.249Z,7.26
2017-05-30T20:03:00.513Z,6.78
2017-05-30T20:05:28.788Z,5.84
2017-05-30T20:07:57.100Z,8.04
2017-05-30T20:10:25.321Z,14.66
2017-05-30T20:12:53.625Z,8.30
2017-05-30T20:15:21.901Z,5.82
2017-05-30T20:17:50.176Z,5.00
2017-05-30T20:20:18.414Z,7.04
2017-05-30T20:22:46.745Z,6.42
2017-05-30T20:25:14.960Z,6.06
2017-05-30T20:27:43.188Z,12.16
2017-05-30T20:30:11.460Z,8.38
2017-05-30T20:32:39.736Z,5.92
2017-05-30T20:35:08.012Z,6.40
2017-05-30T20:37:36.292Z,5.98
2017-05-30T20:40:04.523Z,7.38
2017-05-30T20:42:32.757Z,5.78
2017-05-30T20:45:00.985Z,7.38
2017-05-30T20:47:29.301Z,6.46
2017-05-30T20:49:57.618Z,11.18
2017-05-30T20:52:25.848Z,5.64
2017-05-30T20:54:54.084Z,4.88
2017-05-30T20:57:22.319Z,5.10
2017-05-30T20:59:50.546Z,7.24
2017-05-30T21:02:18.773Z,4.92
2017-05-30T21:04:46.992Z,7.96
2017-05-30T21:07:15.215Z,8.20
2017-05-30T21:09:43.443Z,9.94
2017-05-30T21:12:11.680Z,5.16
2017-05-30T21:14:39.972Z,5.02
2017-05-30T21:17:08.192Z,5.30
2017-05-30T21:19:36.444Z,10.56
2017-05-30T21:22:04.672Z,5.76
2017-05-30T21:24:32.904Z,5.86
2017-05-30T21:27:01.140Z,8.42
2017-05-30T21:29:29.368Z,7.52
2017-05-30T21:31:57.602Z,6.26
2017-05-30T21:34:25.829Z,5.20
2017-05-30T21:36:54.056Z,5.30
2017-05-30T21:39:22.296Z,6.44
2017-05-30T21:41:50.512Z,5.68
2017-05-30T21:44:18.740Z,5.22
2017-05-30T21:46:46.976Z,6.66
2017-05-30T21:49:15.236Z,7.20
2017-05-30T21:51:44.035Z,7.14
2017-05-30T21:54:12.412Z,5.92
2017-05-30T21:56:40.628Z,7.02
2017-05-30T21:59:08.857Z,5.24
2017-05-30T22:01:37.077Z,6.18
2017-05-30T22:04:05.308Z,7.06
2017-05-30T22:06:33.536Z,6.48
2017-05-30T22:09:01.759Z,5.62
2017-05-30T22:11:29.979Z,6.72
2017-05-30T22:13:58.209Z,5.00
2017-05-30T22:16:26.473Z,3.76
2017-05-30T22:18:54.688Z,7.12
2017-05-30T22:21:22.919Z,5.54
2017-05-30T22:23:51.150Z,6.56
2017-05-30T22:26:19.381Z,8.50
2017-05-30T22:28:47.612Z,3.42
2017-05-30T22:31:15.847Z,2.72
2017-05-30T22:33:44.069Z,3.82
2017-05-30T22:36:12.288Z,4.94
2017-05-30T22:38:40.521Z,3.94
2017-05-30T22:41:08.748Z,3.02
2017-05-30T22:43:36.984Z,4.10
2017-05-30T22:46:05.216Z,3.80
2017-05-30T22:49:15.096Z,3.40
2017-05-30T22:51:44.158Z,3.00
2017-05-30T22:54:13.160Z,2.74
2017-05-30T22:56:42.157Z,2.46
2017-05-30T22:59:11.172Z,6.00
2017-05-30T23:01:40.180Z,3.66
2017-05-30T23:04:08.917Z,4.30
2017-05-30T23:06:37.660Z,7.66
2017-05-30T23:09:06.431Z,3.62
2017-05-30T23:11:35.207Z,4.40
2017-05-30T23:14:03.955Z,3.50
2017-05-30T23:16:32.698Z,3.94
2017-05-30T23:19:01.443Z,2.82
2017-05-30T23:21:30.203Z,3.66
2017-05-30T23:23:58.970Z,2.26
2017-05-30T23:26:27.973Z,3.20
2017-05-30T23:28:56.972Z,4.82
2017-05-30T23:31:26.051Z,3.34
2017-05-30T23:33:55.048Z,2.74
2017-05-30T23:36:24.041Z,5.55
2017-05-30T23:38:52.269Z,3.20
2017-05-30T23:41:20.512Z,3.56
2017-05-30T23:43:48.741Z,4.74
2017-05-30T23:46:16.969Z,3.04
2017-05-30T23:48:45.201Z,4.58
2017-05-30T23:51:13.432Z,4.88
2017-05-30T23:53:41.670Z,3.90
2017-05-30T23:56:09.892Z,4.06
2017-05-30T23:58:38.219Z,6.84
